createdAt,value
2023-10-21T00:01:52.941Z,88.42
2023-10-21T00:04:20.849Z,88.87
2023-10-21T00:06:48.763Z,89.27
2023-10-21T00:09:17.050Z,89.51
2023-10-21T00:11:45.181Z,89.73
2023-10-21T00:14:13.139Z,89.78
2023-10-21T00:16:42.690Z,90.45
2023-10-21T00:19:12.118Z,90.43
2023-10-21T00:21:42.101Z,91.07
2023-10-21T00:24:10.278Z,91.04
2023-10-21T00:26:48.788Z,91.46
2023-10-21T00:29:16.891Z,90.90
2023-10-21T00:31:46.771Z,91.42
2023-10-21T00:34:14.690Z,91.98
2023-10-21T00:36:42.555Z,92.31
2023-10-21T00:39:12.481Z,92.54
2023-10-21T00:41:41.165Z,93.03
2023-10-21T00:44:09.873Z,92.82
2023-10-21T00:46:38.204Z,92.61
2023-10-21T00:49:07.756Z,92.81
2023-10-21T00:51:36.667Z,93.58
2023-10-21T00:54:06.036Z,93.27
2023-10-21T00:56:33.985Z,93.74
2023-10-21T00:59:02.443Z,93.66
2023-10-21T01:01:30.520Z,93.72
2023-10-21T01:03:59.066Z,93.29
2023-10-21T01:06:28.870Z,93.22
2023-10-21T01:08:56.778Z,92.65
2023-10-21T01:11:24.710Z,92.80
2023-10-21T01:13:53.052Z,92.56
2023-10-21T01:16:20.934Z,91.66
2023-10-21T01:18:48.973Z,91.14
2023-10-21T01:21:16.912Z,90.23
2023-10-21T01:23:46.221Z,89.91
2023-10-21T01:26:14.534Z,89.20
2023-10-21T01:28:42.820Z,88.64
2023-10-21T01:31:10.670Z,87.93
2023-10-21T01:33:38.644Z,87.30
2023-10-21T01:36:06.922Z,87.05
2023-10-21T01:38:34.838Z,86.03
2023-10-21T01:41:04.696Z,85.40
2023-10-21T01:43:32.956Z,85.09
2023-10-21T01:46:06.452Z,84.32
2023-10-21T01:48:34.634Z,84.19
2023-10-21T01:51:05.841Z,83.57
2023-10-21T01:53:34.141Z,82.55
2023-10-21T01:56:04.412Z,82.44
2023-10-21T01:58:33.996Z,82.08
2023-10-21T02:01:09.817Z,81.85
2023-10-21T02:03:37.829Z,81.43
2023-10-21T02:06:07.840Z,80.96
2023-10-21T02:08:36.048Z,80.97
2023-10-21T02:11:05.305Z,80.78
2023-10-21T02:13:33.204Z,80.67
2023-10-21T02:16:01.138Z,80.85
2023-10-21T02:18:29.449Z,80.49
2023-10-21T02:20:57.439Z,80.10
2023-10-21T02:23:25.350Z,80.13
2023-10-21T02:26:01.370Z,79.78
2023-10-21T02:28:30.648Z,79.85
2023-10-21T02:30:58.637Z,79.65
2023-10-21T02:33:26.750Z,79.59
2023-10-21T02:35:56.783Z,79.33
2023-10-21T02:38:25.127Z,78.70
2023-10-21T02:40:53.541Z,78.77
2023-10-21T02:43:21.426Z,79.16
2023-10-21T02:45:50.798Z,78.40
2023-10-21T02:48:18.816Z,77.95
2023-10-21T02:50:46.905Z,78.08
2023-10-21T02:53:14.781Z,77.70
2023-10-21T02:55:42.643Z,77.06
2023-10-21T02:58:10.527Z,76.80
2023-10-21T03:00:38.745Z,76.65
2023-10-21T03:03:08.624Z,76.43
2023-10-21T03:05:36.541Z,76.25
2023-10-21T03:08:04.853Z,76.20
2023-10-21T03:10:32.749Z,76.40
2023-10-21T03:13:00.709Z,76.16
2023-10-21T03:15:28.645Z,76.19
2023-10-21T03:17:56.645Z,76.07
2023-10-21T03:20:26.364Z,76.46
2023-10-21T03:22:54.258Z,76.10
2023-10-21T03:25:22.693Z,76.25
2023-10-21T03:27:50.642Z,76.09
2023-10-21T03:30:18.726Z,75.93
2023-10-21T03:32:48.030Z,75.31
2023-10-21T03:35:15.948Z,75.28
2023-10-21T03:37:45.324Z,75.45
2023-10-21T03:40:14.123Z,75.14
2023-10-21T03:42:41.998Z,74.61
2023-10-21T03:45:10.560Z,74.45
2023-10-21T03:47:38.792Z,74.40
2023-10-21T03:50:08.013Z,73.83
2023-10-21T03:52:35.870Z,73.36
2023-10-21T03:55:05.803Z,73.56
2023-10-21T03:57:33.810Z,73.17
2023-10-21T04:00:02.409Z,73.10
2023-10-21T04:02:30.324Z,73.09
2023-10-21T04:04:58.199Z,73.41
2023-10-21T04:07:26.114Z,73.37
2023-10-21T04:09:53.975Z,73.32
2023-10-21T04:12:23.470Z,73.04
2023-10-21T04:14:51.355Z,73.06
2023-10-21T04:17:19.816Z,73.33
2023-10-21T04:19:47.650Z,73.32
2023-10-21T04:22:15.603Z,73.11
2023-10-21T04:24:43.858Z,72.75
2023-10-21T04:27:12.821Z,72.93
2023-10-21T04:29:42.160Z,72.81
2023-10-21T04:32:10.115Z,72.83
2023-10-21T04:34:37.993Z,72.53
2023-10-21T04:37:05.853Z,72.63
2023-10-21T04:39:34.845Z,72.30
2023-10-21T04:42:02.836Z,72.64
2023-10-21T04:44:30.721Z,72.43
2023-10-21T04:47:00.213Z,72.66
2023-10-21T04:49:28.157Z,72.56
2023-10-21T04:51:56.019Z,72.57
2023-10-21T04:54:23.993Z,72.47
2023-10-21T04:56:52.060Z,72.09
2023-10-21T04:59:19.933Z,71.64
2023-10-21T05:01:47.823Z,71.54
2023-10-21T05:04:17.120Z,71.33
2023-10-21T05:06:45.334Z,71.24
2023-10-21T05:09:13.497Z,71.24
2023-10-21T05:11:41.361Z,71.45
2023-10-21T05:14:09.323Z,71.18
2023-10-21T05:16:37.262Z,70.94
2023-10-21T05:19:06.074Z,71.38
2023-10-21T05:21:35.427Z,70.68
2023-10-21T05:24:03.381Z,70.78
2023-10-21T05:26:31.651Z,70.73
2023-10-21T05:28:59.918Z,70.27
2023-10-21T05:31:27.984Z,70.48
2023-10-21T05:33:58.952Z,70.02
2023-10-21T05:36:27.494Z,70.13
2023-10-21T05:38:56.853Z,70.25
2023-10-21T05:41:24.789Z,70.47
2023-10-21T05:43:53.145Z,70.47
2023-10-21T05:46:21.077Z,70.91
2023-10-21T05:48:49.001Z,70.58
2023-10-21T05:51:17.327Z,70.27
2023-10-21T05:53:45.268Z,70.66
2023-10-21T05:56:14.584Z,70.93
2023-10-21T05:58:43.881Z,70.54
2023-10-21T06:01:13.183Z,70.79
2023-10-21T06:03:41.613Z,70.80
2023-10-21T06:06:09.773Z,70.36
2023-10-21T06:08:37.696Z,70.45
2023-10-21T06:11:05.717Z,70.14
2023-10-21T06:13:34.982Z,70.05
2023-10-21T06:16:02.879Z,70.48
2023-10-21T06:18:30.874Z,69.85
2023-10-21T06:20:58.870Z,70.28
2023-10-21T06:23:26.805Z,70.52
2023-10-21T06:25:56.086Z,70.49
2023-10-21T06:28:24.073Z,70.64
2023-10-21T06:30:53.359Z,70.39
2023-10-21T06:33:21.310Z,70.62
2023-10-21T06:35:49.577Z,70.37
2023-10-21T06:38:18.266Z,70.22
2023-10-21T06:40:58.937Z,70.81
2023-10-21T06:43:34.613Z,70.51
2023-10-21T06:46:04.179Z,69.82
2023-10-21T06:48:33.139Z,70.16
2023-10-21T06:51:01.154Z,70.23
2023-10-21T06:53:29.147Z,70.28
2023-10-21T06:55:57.387Z,70.13
2023-10-21T06:58:25.271Z,70.38
2023-10-21T07:00:53.156Z,70.26
2023-10-21T07:03:22.739Z,70.56
2023-10-21T07:05:51.061Z,70.23
2023-10-21T07:08:19.258Z,69.25
2023-10-21T07:10:47.140Z,69.58
2023-10-21T07:13:15.649Z,69.32
2023-10-21T07:15:43.581Z,69.10
2023-10-21T07:18:11.631Z,69.08
2023-10-21T07:20:40.933Z,68.63
2023-10-21T07:23:10.763Z,69.01
2023-10-21T07:25:40.436Z,68.26
2023-10-21T07:28:08.336Z,68.64
2023-10-21T07:30:36.255Z,67.84
2023-10-21T07:33:04.522Z,67.82
2023-10-21T07:35:32.485Z,68.09
2023-10-21T07:38:01.721Z,68.20
2023-10-21T07:40:31.152Z,68.36
2023-10-21T07:42:59.482Z,68.55
2023-10-21T07:45:27.557Z,68.62
2023-10-21T07:47:55.672Z,67.94
2023-10-21T07:50:24.612Z,68.26
2023-10-21T07:52:52.763Z,68.28
2023-10-21T07:55:22.135Z,68.58
2023-10-21T07:57:50.010Z,67.97
2023-10-21T08:00:18.504Z,68.46
2023-10-21T08:02:46.454Z,68.58
2023-10-21T08:05:16.816Z,68.75
2023-10-21T08:07:44.852Z,69.12
2023-10-21T08:10:12.785Z,68.51
2023-10-21T08:12:42.053Z,68.92
2023-10-21T08:15:11.079Z,68.96
2023-10-21T08:17:39.323Z,69.31
2023-10-21T08:20:09.595Z,68.77
2023-10-21T08:22:37.634Z,68.92
2023-10-21T08:25:07.366Z,69.30
2023-10-21T08:27:37.465Z,69.50
2023-10-21T08:30:10.854Z,69.66
2023-10-21T08:32:39.450Z,70.00
2023-10-21T08:35:08.115Z,70.38
2023-10-21T08:37:36.042Z,70.53
2023-10-21T08:40:08.822Z,70.70
2023-10-21T08:43:00.102Z,70.91
2023-10-21T08:45:27.806Z,70.94
2023-10-21T08:47:58.898Z,70.41
2023-10-21T08:50:28.581Z,70.86
2023-10-21T08:52:59.628Z,70.69
2023-10-21T08:55:28.040Z,71.10
2023-10-21T08:57:57.095Z,71.49
2023-10-21T09:00:25.284Z,71.63
2023-10-21T09:02:54.739Z,71.42
2023-10-21T09:05:22.785Z,71.46
2023-10-21T09:07:51.389Z,71.95
2023-10-21T09:10:22.308Z,71.97
2023-10-21T09:12:50.455Z,71.54
2023-10-21T09:15:20.252Z,72.47
2023-10-21T09:17:53.242Z,72.25
2023-10-21T09:20:24.007Z,71.88
2023-10-21T09:22:53.073Z,72.57
2023-10-21T09:25:22.785Z,72.22
2023-10-21T09:27:54.581Z,72.66
2023-10-21T09:30:23.781Z,72.14
2023-10-21T09:32:51.767Z,72.54
2023-10-21T09:35:26.605Z,72.60
2023-10-21T09:37:54.929Z,72.62
2023-10-21T09:40:25.726Z,72.77
2023-10-21T09:42:54.762Z,72.73
2023-10-21T09:45:27.386Z,72.84
2023-10-21T09:47:57.024Z,73.38
2023-10-21T09:50:27.478Z,73.01
2023-10-21T09:52:58.330Z,73.40
2023-10-21T09:55:29.396Z,72.91
2023-10-21T09:57:59.188Z,73.23
2023-10-21T10:00:27.824Z,73.60
2023-10-21T10:02:57.216Z,73.33
2023-10-21T10:05:28.192Z,73.42
2023-10-21T10:07:57.558Z,73.77
2023-10-21T10:10:28.744Z,74.12
2023-10-21T10:13:00.727Z,74.28
2023-10-21T10:15:31.031Z,73.98
2023-10-21T10:17:59.600Z,74.37
2023-10-21T10:20:29.501Z,73.83
2023-10-21T10:23:00.020Z,74.38
2023-10-21T10:25:29.768Z,74.70
2023-10-21T10:28:06.166Z,74.11
2023-10-21T10:30:34.926Z,74.84
2023-10-21T10:33:14.415Z,74.88
2023-10-21T10:35:48.421Z,74.94
2023-10-21T10:38:25.718Z,74.94
2023-10-21T10:40:56.849Z,75.15
2023-10-21T10:43:25.066Z,75.50
2023-10-21T10:45:53.345Z,75.42
2023-10-21T10:48:21.828Z,75.97
2023-10-21T10:50:52.444Z,75.42
2023-10-21T10:53:21.826Z,75.62
2023-10-21T10:55:50.811Z,75.92
2023-10-21T10:58:20.168Z,76.16
2023-10-21T11:00:48.504Z,76.61
2023-10-21T11:03:28.646Z,76.54
2023-10-21T11:05:59.553Z,76.49
2023-10-21T11:08:28.142Z,77.07
2023-10-21T11:11:04.067Z,76.97
2023-10-21T11:13:32.015Z,76.71
2023-10-21T11:16:01.624Z,76.92
2023-10-21T11:18:30.066Z,77.35
2023-10-21T11:20:59.767Z,76.87
2023-10-21T11:23:29.399Z,77.76
2023-10-21T11:25:58.773Z,77.36
2023-10-21T11:28:27.350Z,77.39
2023-10-21T11:30:55.841Z,78.26
2023-10-21T11:33:24.361Z,77.85
2023-10-21T11:35:53.474Z,78.41
2023-10-21T11:38:22.995Z,78.19
2023-10-21T11:40:51.189Z,78.42
2023-10-21T11:43:20.477Z,77.91
2023-10-21T11:45:50.766Z,78.19
2023-10-21T11:48:20.924Z,78.31
2023-10-21T11:50:48.865Z,78.51
2023-10-21T11:53:16.844Z,77.77
2023-10-21T11:56:03.957Z,78.15
2023-10-21T11:58:57.502Z,78.58
2023-10-21T12:01:42.134Z,78.80
2023-10-21T12:04:39.107Z,78.53
2023-10-21T12:07:24.560Z,78.69
2023-10-21T12:10:06.303Z,79.13
2023-10-21T12:12:58.307Z,78.94
2023-10-21T12:15:52.283Z,78.77
2023-10-21T12:18:28.373Z,79.21
2023-10-21T12:21:13.181Z,79.54
2023-10-21T12:24:01.108Z,79.38
2023-10-21T12:26:54.050Z,79.39
2023-10-21T12:29:41.036Z,79.29
2023-10-21T12:32:26.484Z,80.08
2023-10-21T12:35:08.377Z,79.39
2023-10-21T12:37:57.052Z,79.51
2023-10-21T12:40:31.855Z,79.45
2023-10-21T12:43:13.697Z,80.06
2023-10-21T12:45:47.534Z,79.90
2023-10-21T12:48:18.589Z,79.88
2023-10-21T12:50:46.795Z,80.21
2023-10-21T12:53:14.795Z,80.64
2023-10-21T12:55:42.969Z,80.17
2023-10-21T12:58:10.882Z,80.92
2023-10-21T13:00:39.043Z,80.33
2023-10-21T13:03:12.301Z,81.04
2023-10-21T13:05:41.038Z,80.85
2023-10-21T13:08:10.645Z,80.37
2023-10-21T13:10:38.792Z,81.10
2023-10-21T13:13:10.239Z,81.06
2023-10-21T13:15:38.856Z,81.32
2023-10-21T13:18:08.673Z,80.88
2023-10-21T13:20:36.724Z,81.18
2023-10-21T13:23:05.727Z,81.54
2023-10-21T13:25:35.315Z,81.12
2023-10-21T13:28:06.621Z,81.16
2023-10-21T13:30:34.721Z,81.06
2023-10-21T13:33:03.856Z,80.98
2023-10-21T13:35:35.605Z,81.17
2023-10-21T13:38:04.151Z,81.09
2023-10-21T13:40:32.291Z,81.46
2023-10-21T13:43:00.240Z,81.23
2023-10-21T13:45:30.097Z,81.51
2023-10-21T13:47:59.128Z,81.03
2023-10-21T13:50:28.876Z,80.93
2023-10-21T13:53:05.910Z,81.48
2023-10-21T13:55:33.834Z,81.62
2023-10-21T13:58:01.695Z,81.59
2023-10-21T14:00:39.019Z,81.84
2023-10-21T14:03:11.765Z,81.62
2023-10-21T14:05:40.930Z,81.53
2023-10-21T14:08:12.387Z,81.76
2023-10-21T14:10:44.033Z,81.92
2023-10-21T14:13:16.948Z,82.57
2023-10-21T14:15:46.074Z,82.32
2023-10-21T14:18:14.348Z,82.61
2023-10-21T14:20:42.843Z,83.24
2023-10-21T14:23:15.365Z,83.76
2023-10-21T14:25:44.417Z,83.70
2023-10-21T14:28:14.575Z,84.76
2023-10-21T14:30:44.343Z,84.63
2023-10-21T14:33:13.613Z,85.04
2023-10-21T14:35:41.599Z,84.73
2023-10-21T14:38:09.876Z,85.34
2023-10-21T14:40:41.140Z,85.26
2023-10-21T14:43:10.777Z,85.91
2023-10-21T14:45:39.743Z,85.69
2023-10-21T14:48:11.249Z,86.45
2023-10-21T14:50:40.059Z,86.17
2023-10-21T14:53:09.551Z,86.65
2023-10-21T14:55:50.736Z,86.97
2023-10-21T14:58:24.595Z,87.18
2023-10-21T15:00:53.528Z,87.33
2023-10-21T15:03:22.657Z,87.25
2023-10-21T15:05:51.192Z,87.96
2023-10-21T15:08:22.419Z,88.20
2023-10-21T15:10:52.640Z,87.81
2023-10-21T15:13:24.323Z,87.64
2023-10-21T15:15:59.606Z,88.17
2023-10-21T15:18:27.596Z,88.18
2023-10-21T15:21:03.760Z,89.17
2023-10-21T15:23:31.641Z,88.80
2023-10-21T15:25:59.563Z,88.86
2023-10-21T15:28:28.819Z,89.80
2023-10-21T15:30:56.695Z,89.70
2023-10-21T15:33:25.194Z,89.69
2023-10-21T15:35:56.067Z,90.29
2023-10-21T15:38:24.081Z,90.01
2023-10-21T15:40:51.959Z,91.00
2023-10-21T15:43:20.107Z,90.68
2023-10-21T15:45:49.434Z,91.03
2023-10-21T15:48:17.435Z,91.42
2023-10-21T15:50:45.376Z,91.94
2023-10-21T15:53:13.236Z,92.03
2023-10-21T15:55:41.459Z,91.63
2023-10-21T15:58:09.379Z,92.73
2023-10-21T16:00:37.389Z,92.58
2023-10-21T16:03:07.369Z,92.92
2023-10-21T16:05:36.474Z,92.74
2023-10-21T16:08:04.659Z,93.00
2023-10-21T16:10:32.585Z,93.75
2023-10-21T16:13:00.593Z,93.76
2023-10-21T16:15:28.856Z,94.00
2023-10-21T16:17:57.101Z,94.09
2023-10-21T16:20:26.388Z,94.43
2023-10-21T16:22:54.276Z,94.48
2023-10-21T16:25:22.289Z,95.13
2023-10-21T16:27:50.152Z,95.45
2023-10-21T16:30:18.155Z,95.52
2023-10-21T16:32:46.159Z,96.19
2023-10-21T16:35:14.151Z,96.00
2023-10-21T16:37:43.400Z,96.49
2023-10-21T16:40:12.058Z,96.32
2023-10-21T16:42:40.477Z,97.04
2023-10-21T16:45:09.176Z,96.91
2023-10-21T16:47:37.389Z,97.04
2023-10-21T16:50:05.706Z,96.86
2023-10-21T16:52:33.567Z,97.65
2023-10-21T16:55:02.785Z,97.55
2023-10-21T16:57:30.767Z,97.61
2023-10-21T16:59:58.673Z,97.74
2023-10-21T17:02:26.970Z,98.12
2023-10-21T17:04:54.904Z,98.59
2023-10-21T17:07:23.876Z,98.40
2023-10-21T17:09:53.346Z,98.48
2023-10-21T17:12:22.690Z,98.69
2023-10-21T17:14:50.615Z,99.48
2023-10-21T17:17:18.583Z,99.16
2023-10-21T17:19:46.618Z,99.50
2023-10-21T17:22:14.534Z,99.41
2023-10-21T17:24:42.581Z,99.70
2023-10-21T17:27:10.984Z,99.93
2023-10-21T17:29:40.277Z,99.90
2023-10-21T17:32:08.931Z,99.68
2023-10-21T17:34:36.886Z,99.51
2023-10-21T17:37:05.179Z,99.59
2023-10-21T17:39:33.119Z,100.00
2023-10-21T17:42:01.036Z,100.00
2023-10-21T17:44:32.519Z,100.00
2023-10-21T17:47:02.382Z,100.00
2023-10-21T17:49:30.608Z,100.00
2023-10-21T17:51:58.956Z,100.00
2023-10-21T17:54:27.343Z,100.00
2023-10-21T17:56:55.260Z,100.00
2023-10-21T17:59:23.470Z,100.00
2023-10-21T18:01:51.464Z,100.00
2023-10-21T18:04:20.909Z,100.00
2023-10-21T18:06:49.161Z,100.00
2023-10-21T18:09:17.501Z,100.00
2023-10-21T18:11:45.570Z,100.00
2023-10-21T18:14:13.470Z,100.00
2023-10-21T18:16:42.237Z,100.00
2023-10-21T18:19:10.652Z,100.00
2023-10-21T18:21:39.977Z,100.00
2023-10-21T18:24:08.980Z,100.00
2023-10-21T18:26:36.879Z,100.00
2023-10-21T18:29:05.786Z,100.00
2023-10-21T18:31:33.848Z,100.00
2023-10-21T18:34:01.893Z,100.00
2023-10-21T18:36:29.861Z,100.00
2023-10-21T18:38:59.245Z,100.00
2023-10-21T18:41:27.778Z,100.00
2023-10-21T18:43:55.633Z,100.00
2023-10-21T18:46:23.507Z,100.00
2023-10-21T18:48:51.447Z,100.00
2023-10-21T18:51:26.823Z,100.00
2023-10-21T18:53:55.408Z,100.00
2023-10-21T18:56:24.838Z,100.00
2023-10-21T18:58:52.692Z,100.00
2023-10-21T19:01:20.974Z,100.00
2023-10-21T19:03:48.920Z,100.00
2023-10-21T19:06:16.859Z,100.00
2023-10-21T19:08:44.776Z,100.00
2023-10-21T19:11:13.560Z,100.00
2023-10-21T19:13:42.838Z,100.00
2023-10-21T19:16:11.021Z,100.00
2023-10-21T19:18:39.175Z,100.00
2023-10-21T19:21:07.902Z,100.00
2023-10-21T19:23:37.733Z,100.00
2023-10-21T19:26:05.802Z,100.00
2023-10-21T19:28:33.727Z,100.00
2023-10-21T19:31:10.626Z,100.00
2023-10-21T19:33:38.640Z,100.00
2023-10-21T19:36:08.115Z,100.00
2023-10-21T19:38:36.207Z,100.00
2023-10-21T19:41:07.640Z,100.00
2023-10-21T19:43:35.912Z,100.00
2023-10-21T19:46:07.513Z,100.00
2023-10-21T19:48:36.582Z,100.00
2023-10-21T19:51:05.931Z,100.00
2023-10-21T19:53:34.398Z,100.00
2023-10-21T19:56:04.375Z,100.00
2023-10-21T19:58:32.486Z,100.00
2023-10-21T20:01:06.458Z,100.00
2023-10-21T20:03:35.669Z,100.00
2023-10-21T20:06:04.618Z,100.00
2023-10-21T20:08:33.012Z,100.00
2023-10-21T20:11:05.947Z,100.00
2023-10-21T20:13:34.113Z,100.00
2023-10-21T20:16:02.652Z,100.00
2023-10-21T20:18:31.944Z,100.00
2023-10-21T20:21:02.848Z,100.00
2023-10-21T20:23:31.151Z,100.00
2023-10-21T20:26:02.475Z,100.00
2023-10-21T20:28:30.416Z,100.00
2023-10-21T20:30:59.886Z,100.00
2023-10-21T20:33:27.881Z,100.00
2023-10-21T20:35:57.586Z,100.00
2023-10-21T20:38:26.223Z,100.00
2023-10-21T20:40:54.454Z,100.00
2023-10-21T20:43:23.147Z,100.00
2023-10-21T20:45:57.558Z,100.00
2023-10-21T20:48:26.064Z,100.00
2023-10-21T20:50:54.124Z,100.00
2023-10-21T20:53:23.391Z,100.00
2023-10-21T20:55:51.902Z,100.00
2023-10-21T20:58:19.839Z,100.00
2023-10-21T21:00:48.023Z,100.00
2023-10-21T21:03:16.050Z,100.00
2023-10-21T21:05:43.943Z,100.00
2023-10-21T21:08:11.793Z,100.00
2023-10-21T21:10:41.077Z,100.00
2023-10-21T21:13:09.028Z,100.00
2023-10-21T21:15:36.941Z,100.00
2023-10-21T21:18:04.949Z,100.00
2023-10-21T21:20:32.834Z,100.00
2023-10-21T21:23:00.750Z,100.00
2023-10-21T21:25:28.652Z,100.00
2023-10-21T21:27:57.966Z,100.00
2023-10-21T21:30:25.915Z,100.00
2023-10-21T21:32:53.830Z,100.00
2023-10-21T21:35:21.956Z,100.00
2023-10-21T21:37:49.826Z,100.00
2023-10-21T21:40:17.710Z,100.00
2023-10-21T21:42:45.683Z,100.00
2023-10-21T21:45:15.282Z,100.00
2023-10-21T21:47:43.198Z,100.00
2023-10-21T21:50:11.706Z,100.00
2023-10-21T21:52:39.771Z,100.00
2023-10-21T21:55:08.158Z,100.00
2023-10-21T21:57:36.297Z,100.00
2023-10-21T22:00:06.701Z,100.00
2023-10-21T22:02:35.983Z,100.00
2023-10-21T22:05:05.202Z,100.00
2023-10-21T22:07:33.180Z,100.00
2023-10-21T22:10:01.236Z,100.00
2023-10-21T22:12:29.999Z,100.00
2023-10-21T22:14:58.072Z,100.00
2023-10-21T22:17:26.303Z,100.00
2023-10-21T22:19:55.621Z,100.00
2023-10-21T22:22:23.492Z,100.00
2023-10-21T22:24:51.389Z,100.00
2023-10-21T22:27:25.924Z,100.00
2023-10-21T22:29:54.183Z,100.00
2023-10-21T22:32:22.060Z,100.00
2023-10-21T22:34:50.206Z,100.00
2023-10-21T22:37:19.469Z,100.00
2023-10-21T22:39:47.330Z,100.00
2023-10-21T22:42:15.172Z,100.00
2023-10-21T22:44:43.286Z,100.00
2023-10-21T22:47:12.559Z,100.00
2023-10-21T22:49:40.459Z,100.00
2023-10-21T22:52:09.746Z,100.00
2023-10-21T22:54:39.132Z,100.00
2023-10-21T22:57:07.185Z,100.00
2023-10-21T22:59:35.132Z,100.00
2023-10-21T23:02:03.061Z,100.00
2023-10-21T23:04:31.172Z,100.00
2023-10-21T23:06:59.070Z,100.00
2023-10-21T23:09:30.705Z,100.00
2023-10-21T23:12:00.202Z,100.00
2023-10-21T23:14:29.099Z,100.00
2023-10-21T23:16:57.012Z,100.00
2023-10-21T23:19:24.893Z,100.00
2023-10-21T23:21:52.775Z,100.00
2023-10-21T23:24:20.613Z,100.00
2023-10-21T23:26:48.554Z,100.00
2023-10-21T23:29:18.257Z,100.00
2023-10-21T23:31:46.127Z,100.00
2023-10-21T23:34:14.034Z,100.00
2023-10-21T23:36:42.044Z,100.00
2023-10-21T23:39:13.886Z,100.00
2023-10-21T23:41:42.181Z,100.00
2023-10-21T23:44:10.100Z,100.00
2023-10-21T23:46:39.346Z,100.00
2023-10-21T23:49:07.328Z,100.00
2023-10-21T23:51:35.240Z,100.00
2023-10-21T23:54:03.120Z,100.00
2023-10-21T23:56:31.109Z,100.00
2023-10-21T23:58:59.062Z,100.00
